Time;durP1;ratioP1;P1;durP2;ratioP2;P2;SDS_P1;SDS_P2;PMS_P1;PMS_P2;Temp;Humidity;BMP_temperature;BMP_pressure;BME280_temperature;BME280_humidity;BME280_pressure;Samples;Min_cycle;Max_cycle;Signal;HPM_P1;HPM_P2
2023/10/04 00:01:04;;;;;;;1.00;0.80;;;;;;;;;;4980329;29;20032;-82
2023/10/04 00:03:32;;;;;;;0.60;0.57;;;;;;;;;;4980249;29;20100;-81
2023/10/04 00:05:59;;;;;;;1.05;0.95;;;;;;;;;;4964419;29;20047;-82
2023/10/04 00:08:37;;;;;;;0.68;0.60;;;;;;;;;;4980364;29;20019;-82
2023/10/04 00:11:05;;;;;;;0.60;0.60;;;;;;;;;;4980500;29;20015;-83
2023/10/04 00:13:36;;;;;;;0.80;0.77;;;;;;;;;;4981393;29;20023;-82
2023/10/04 00:16:05;;;;;;;0.95;0.88;;;;;;;;;;4981892;29;20015;-82
2023/10/04 00:18:33;;;;;;;0.60;0.60;;;;;;;;;;4979669;29;20045;-82
2023/10/04 00:21:03;;;;;;;0.60;0.60;;;;;;;;;;4966844;28;20039;-82
2023/10/04 00:23:34;;;;;;;0.60;0.60;;;;;;;;;;4978512;29;20457;-82
2023/10/04 00:26:07;;;;;;;0.85;0.70;;;;;;;;;;4977958;29;20117;-82
2023/10/04 00:28:33;;;;;;;0.57;0.57;;;;;;;;;;4976567;29;20031;-82
2023/10/04 00:31:01;;;;;;;0.60;0.60;;;;;;;;;;4974629;29;20039;-81
2023/10/04 00:33:29;;;;;;;0.60;0.60;;;;;;;;;;4959133;29;20027;-81
2023/10/04 00:35:56;;;;;;;0.60;0.60;;;;;;;;;;4959119;29;20035;-81
2023/10/04 00:38:24;;;;;;;0.50;0.50;;;;;;;;;;4958789;29;20098;-82
2023/10/04 00:40:51;;;;;;;0.60;0.60;;;;;;;;;;4958468;29;20043;-81
2023/10/04 00:43:19;;;;;;;0.57;0.57;;;;;;;;;;4958243;29;20059;-82
2023/10/04 00:45:50;;;;;;;0.60;0.60;;;;;;;;;;4958574;29;20034;-82
2023/10/04 00:48:34;;;;;;;0.80;0.60;;;;;;;;;;4958543;29;20103;-82
2023/10/04 00:51:06;;;;;;;0.60;0.60;;;;;;;;;;4958084;29;20020;-81
2023/10/04 00:53:33;;;;;;;0.60;0.60;;;;;;;;;;4974354;29;20113;-82
2023/10/04 00:56:00;;;;;;;0.68;0.68;;;;;;;;;;4958325;29;20104;-81
2023/10/04 00:58:28;;;;;;;0.85;0.70;;;;;;;;;;4957652;29;20008;-81
2023/10/04 01:00:54;;;;;;;0.60;0.60;;;;;;;;;;4979544;28;20031;-81
2023/10/04 01:03:23;;;;;;;0.60;0.60;;;;;;;;;;4996379;28;20030;-81
2023/10/04 01:05:52;;;;;;;0.93;0.75;;;;;;;;;;4996022;28;20019;-81
2023/10/04 01:08:23;;;;;;;0.65;0.65;;;;;;;;;;4996784;28;20027;-81
2023/10/04 01:10:50;;;;;;;0.75;0.75;;;;;;;;;;4996142;28;20050;-81
2023/10/04 01:13:26;;;;;;;0.85;0.70;;;;;;;;;;4979950;28;20027;-81
2023/10/04 01:15:57;;;;;;;0.60;0.60;;;;;;;;;;4937900;29;20043;-81
2023/10/04 01:18:27;;;;;;;0.73;0.70;;;;;;;;;;4938373;29;20036;-82
2023/10/04 01:20:55;;;;;;;0.80;0.70;;;;;;;;;;4975578;28;20035;-81
2023/10/04 01:23:23;;;;;;;0.77;0.60;;;;;;;;;;4975777;28;20050;-81
2023/10/04 01:25:50;;;;;;;0.55;0.55;;;;;;;;;;4975308;28;20118;-81
2023/10/04 01:28:17;;;;;;;0.68;0.60;;;;;;;;;;4974973;28;20042;-81
2023/10/04 01:30:45;;;;;;;0.80;0.70;;;;;;;;;;4975259;28;20015;-81
2023/10/04 01:33:20;;;;;;;0.60;0.60;;;;;;;;;;4975686;28;20038;-82
2023/10/04 01:35:49;;;;;;;0.70;0.65;;;;;;;;;;4975530;29;20171;-81
2023/10/04 01:38:15;;;;;;;0.93;0.70;;;;;;;;;;4959726;29;20045;-81
2023/10/04 01:40:43;;;;;;;0.60;0.60;;;;;;;;;;4976085;28;20091;-81
2023/10/04 01:43:15;;;;;;;0.70;0.70;;;;;;;;;;4975034;28;20200;-81
2023/10/04 01:45:44;;;;;;;0.50;0.50;;;;;;;;;;4976365;29;20034;-81
2023/10/04 01:48:11;;;;;;;0.75;0.70;;;;;;;;;;4976259;28;20027;-81
2023/10/04 01:50:51;;;;;;;0.70;0.68;;;;;;;;;;4975751;29;20031;-81
2023/10/04 01:53:17;;;;;;;1.33;1.00;;;;;;;;;;4975335;28;20035;-80
2023/10/04 01:55:44;;;;;;;0.80;0.60;;;;;;;;;;4975558;28;20031;-81
2023/10/04 01:58:13;;;;;;;0.63;0.63;;;;;;;;;;4975017;28;20042;-81
2023/10/04 02:00:40;;;;;;;0.70;0.63;;;;;;;;;;4995339;28;20034;-81
2023/10/04 02:03:09;;;;;;;0.75;0.70;;;;;;;;;;5014952;28;20031;-82
2023/10/04 02:05:40;;;;;;;0.88;0.70;;;;;;;;;;5009851;28;20022;-80
2023/10/04 02:08:07;;;;;;;0.60;0.60;;;;;;;;;;5009316;28;20216;-79
2023/10/04 02:10:34;;;;;;;0.70;0.65;;;;;;;;;;5008392;28;20026;-81
2023/10/04 02:13:06;;;;;;;0.70;0.65;;;;;;;;;;5007954;28;20037;-81
2023/10/04 02:15:36;;;;;;;0.60;0.60;;;;;;;;;;5007067;28;20022;-82
2023/10/04 02:18:02;;;;;;;0.60;0.60;;;;;;;;;;5007982;28;20023;-82
2023/10/04 02:20:33;;;;;;;0.77;0.65;;;;;;;;;;5009631;28;20028;-82
2023/10/04 02:22:59;;;;;;;0.68;0.60;;;;;;;;;;5011173;28;20023;-81
2023/10/04 02:25:25;;;;;;;0.77;0.70;;;;;;;;;;5016840;28;20022;-81
2023/10/04 02:27:52;;;;;;;1.00;0.90;;;;;;;;;;5016627;28;20018;-82
2023/10/04 02:30:23;;;;;;;0.68;0.68;;;;;;;;;;5018064;28;20042;-83
2023/10/04 02:32:53;;;;;;;0.70;0.60;;;;;;;;;;5018303;28;20035;-83
2023/10/04 02:35:26;;;;;;;0.65;0.60;;;;;;;;;;5016753;28;20015;-81
2023/10/04 02:37:58;;;;;;;0.60;0.60;;;;;;;;;;5014446;28;20052;-81
2023/10/04 02:40:27;;;;;;;0.70;0.60;;;;;;;;;;5022640;28;20049;-82
2023/10/04 02:42:58;;;;;;;0.60;0.60;;;;;;;;;;5026918;28;20034;-81
2023/10/04 02:45:26;;;;;;;0.85;0.70;;;;;;;;;;5028988;28;20026;-81
2023/10/04 02:47:53;;;;;;;0.80;0.70;;;;;;;;;;5033013;28;20026;-80
2023/10/04 02:50:25;;;;;;;0.70;0.70;;;;;;;;;;5032370;28;20036;-81
2023/10/04 02:52:51;;;;;;;0.75;0.63;;;;;;;;;;5014946;28;20045;-80
2023/10/04 02:55:18;;;;;;;0.80;0.70;;;;;;;;;;5011986;28;20050;-81
2023/10/04 02:57:50;;;;;;;0.60;0.60;;;;;;;;;;4995834;28;20031;-81
2023/10/04 03:00:17;;;;;;;0.68;0.60;;;;;;;;;;4996057;28;20037;-81
2023/10/04 03:02:44;;;;;;;0.70;0.70;;;;;;;;;;4995941;28;20087;-81
2023/10/04 03:05:12;;;;;;;0.60;0.50;;;;;;;;;;4995748;28;20043;-81
2023/10/04 03:07:39;;;;;;;0.80;0.63;;;;;;;;;;4996575;28;20011;-81
2023/10/04 03:10:07;;;;;;;0.90;0.80;;;;;;;;;;4997319;28;20020;-81
2023/10/04 03:12:33;;;;;;;0.60;0.60;;;;;;;;;;4999916;28;20050;-82
2023/10/04 03:14:59;;;;;;;0.80;0.73;;;;;;;;;;4998799;28;20045;-81
2023/10/04 03:17:27;;;;;;;1.00;0.80;;;;;;;;;;4998857;28;20026;-82
2023/10/04 03:19:53;;;;;;;1.00;0.70;;;;;;;;;;4980447;28;20019;-81
2023/10/04 03:22:22;;;;;;;0.77;0.68;;;;;;;;;;5009169;28;20541;-80
2023/10/04 03:24:49;;;;;;;0.95;0.80;;;;;;;;;;5007721;28;20042;-81
2023/10/04 03:27:17;;;;;;;0.90;0.70;;;;;;;;;;5041353;28;20062;-80
2023/10/04 03:29:43;;;;;;;0.80;0.70;;;;;;;;;;5030739;28;20030;-80
2023/10/04 03:32:09;;;;;;;0.80;0.70;;;;;;;;;;4995362;28;20529;-81
2023/10/04 03:34:36;;;;;;;0.70;0.60;;;;;;;;;;4995764;28;20111;-81
2023/10/04 03:37:08;;;;;;;0.90;0.75;;;;;;;;;;4995692;28;20046;-80
2023/10/04 03:39:37;;;;;;;0.50;0.50;;;;;;;;;;4995125;28;20054;-80
2023/10/04 03:42:05;;;;;;;0.80;0.70;;;;;;;;;;4995586;28;20027;-80
2023/10/04 03:44:32;;;;;;;0.85;0.80;;;;;;;;;;4996117;28;20039;-81
2023/10/04 03:46:59;;;;;;;0.80;0.70;;;;;;;;;;4995624;28;20038;-81
2023/10/04 03:49:25;;;;;;;0.65;0.60;;;;;;;;;;4995011;28;20043;-81
2023/10/04 03:51:53;;;;;;;0.75;0.65;;;;;;;;;;4997229;28;20059;-81
2023/10/04 03:54:19;;;;;;;0.77;0.70;;;;;;;;;;4999899;28;20080;-82
2023/10/04 03:56:46;;;;;;;0.70;0.70;;;;;;;;;;4996093;28;20042;-81
2023/10/04 03:59:12;;;;;;;0.68;0.65;;;;;;;;;;4994945;28;20019;-80
2023/10/04 04:01:38;;;;;;;0.80;0.70;;;;;;;;;;4994633;28;20026;-81
2023/10/04 04:04:06;;;;;;;0.85;0.73;;;;;;;;;;4995161;28;20046;-81
2023/10/04 04:06:33;;;;;;;0.60;0.60;;;;;;;;;;4995322;28;20027;-80
2023/10/04 04:09:04;;;;;;;0.77;0.70;;;;;;;;;;5003295;28;20035;-81
2023/10/04 04:11:31;;;;;;;0.70;0.70;;;;;;;;;;5031943;28;20034;-80
2023/10/04 04:13:58;;;;;;;0.60;0.60;;;;;;;;;;5032021;28;20030;-81
2023/10/04 04:16:25;;;;;;;0.80;0.70;;;;;;;;;;5031970;28;20027;-80
2023/10/04 04:18:54;;;;;;;0.52;0.50;;;;;;;;;;5034365;28;20086;-81
2023/10/04 04:21:21;;;;;;;0.90;0.73;;;;;;;;;;5034497;28;20454;-81
2023/10/04 04:23:47;;;;;;;0.80;0.70;;;;;;;;;;5034808;28;20033;-81
2023/10/04 04:26:14;;;;;;;0.68;0.60;;;;;;;;;;5035416;28;20026;-81
2023/10/04 04:28:41;;;;;;;0.50;0.50;;;;;;;;;;5035904;28;20029;-82
2023/10/04 04:31:19;;;;;;;1.05;0.95;;;;;;;;;;5033832;28;20042;-81
2023/10/04 04:33:46;;;;;;;0.80;0.63;;;;;;;;;;5015827;28;20056;-81
2023/10/04 04:36:34;;;;;;;0.55;0.55;;;;;;;;;;5016149;28;20033;-82
2023/10/04 04:39:04;;;;;;;0.68;0.60;;;;;;;;;;5030386;28;20030;-81
2023/10/04 04:41:33;;;;;;;0.50;0.50;;;;;;;;;;5015956;28;20038;-82
2023/10/04 04:44:07;;;;;;;0.70;0.70;;;;;;;;;;5016432;28;20036;-81
2023/10/04 04:46:35;;;;;;;1.27;0.90;;;;;;;;;;4993332;28;20031;-82
2023/10/04 04:49:03;;;;;;;0.75;0.70;;;;;;;;;;4994085;28;20031;-82
2023/10/04 04:51:31;;;;;;;0.70;0.60;;;;;;;;;;4930751;28;20039;-82
2023/10/04 04:54:06;;;;;;;0.68;0.68;;;;;;;;;;4996717;28;20053;-82
2023/10/04 04:56:34;;;;;;;0.60;0.60;;;;;;;;;;4955258;29;20035;-80
2023/10/04 04:59:07;;;;;;;0.65;0.65;;;;;;;;;;4953325;29;20036;-83
2023/10/04 05:01:39;;;;;;;0.70;0.60;;;;;;;;;;4955026;29;20040;-81
2023/10/04 05:04:06;;;;;;;0.80;0.73;;;;;;;;;;4936252;29;20040;-80
2023/10/04 05:06:33;;;;;;;0.90;0.75;;;;;;;;;;4935145;29;20032;-82
2023/10/04 05:09:00;;;;;;;0.57;0.55;;;;;;;;;;4919015;29;20103;-83
2023/10/04 05:11:27;;;;;;;0.70;0.68;;;;;;;;;;4919970;29;20047;-82
2023/10/04 05:13:55;;;;;;;0.60;0.60;;;;;;;;;;4899037;29;20037;-81
2023/10/04 05:16:25;;;;;;;0.65;0.65;;;;;;;;;;4899905;29;20037;-80
2023/10/04 05:18:53;;;;;;;0.70;0.63;;;;;;;;;;4901753;29;20036;-80
2023/10/04 05:21:21;;;;;;;0.57;0.57;;;;;;;;;;4901778;29;20183;-83
2023/10/04 05:23:49;;;;;;;0.70;0.70;;;;;;;;;;4902290;29;20076;-82
2023/10/04 05:26:15;;;;;;;1.23;1.13;;;;;;;;;;4899184;29;20593;-80
2023/10/04 05:28:42;;;;;;;1.20;1.10;;;;;;;;;;4897868;29;20037;-81
2023/10/04 05:31:10;;;;;;;0.60;0.60;;;;;;;;;;4898142;29;20034;-81
2023/10/04 05:33:37;;;;;;;0.80;0.70;;;;;;;;;;4910769;29;20048;-81
2023/10/04 05:36:03;;;;;;;0.80;0.70;;;;;;;;;;4936093;29;20103;-81
2023/10/04 05:38:34;;;;;;;0.60;0.60;;;;;;;;;;4937763;29;20092;-81
2023/10/04 05:41:01;;;;;;;0.60;0.60;;;;;;;;;;4935046;29;20035;-80
2023/10/04 05:43:29;;;;;;;0.60;0.60;;;;;;;;;;4934771;29;20056;-80
2023/10/04 05:45:55;;;;;;;0.90;0.80;;;;;;;;;;4936580;29;20100;-82
2023/10/04 05:48:22;;;;;;;0.50;0.50;;;;;;;;;;4933754;29;20056;-81
2023/10/04 05:50:54;;;;;;;0.88;0.70;;;;;;;;;;4934526;29;20127;-81
2023/10/04 05:53:21;;;;;;;0.75;0.63;;;;;;;;;;4936064;29;20059;-79
2023/10/04 05:55:51;;;;;;;0.60;0.60;;;;;;;;;;4952685;29;20036;-81
2023/10/04 05:58:18;;;;;;;0.80;0.70;;;;;;;;;;4975755;28;20038;-80
2023/10/04 06:00:51;;;;;;;0.60;0.60;;;;;;;;;;4976216;28;20035;-80
2023/10/04 06:03:17;;;;;;;0.80;0.77;;;;;;;;;;4991790;28;20031;-80
2023/10/04 06:05:44;;;;;;;0.80;0.70;;;;;;;;;;4991076;28;20105;-80
2023/10/04 06:08:20;;;;;;;0.60;0.60;;;;;;;;;;4990933;28;20030;-79
2023/10/04 06:10:51;;;;;;;1.02;0.93;;;;;;;;;;4990174;28;20034;-80
2023/10/04 06:13:17;;;;;;;1.05;0.98;;;;;;;;;;4990431;28;20064;-80
2023/10/04 06:15:47;;;;;;;0.52;0.52;;;;;;;;;;4990803;28;20104;-80
2023/10/04 06:18:16;;;;;;;0.90;0.80;;;;;;;;;;4992740;28;20143;-81
2023/10/04 06:20:43;;;;;;;0.60;0.60;;;;;;;;;;4992115;28;20027;-80
2023/10/04 06:23:10;;;;;;;0.63;0.60;;;;;;;;;;4992190;28;20134;-80
2023/10/04 06:25:56;;;;;;;0.80;0.80;;;;;;;;;;4992486;28;20045;-81
2023/10/04 06:28:22;;;;;;;0.55;0.52;;;;;;;;;;4992215;28;20038;-81
2023/10/04 06:30:49;;;;;;;0.60;0.60;;;;;;;;;;5003732;28;20062;-81
2023/10/04 06:33:16;;;;;;;0.70;0.70;;;;;;;;;;5032053;28;20034;-81
2023/10/04 06:35:46;;;;;;;1.10;1.00;;;;;;;;;;5032238;28;20041;-82
2023/10/04 06:38:13;;;;;;;4.90;0.90;;;;;;;;;;5029718;28;20090;-81
2023/10/04 06:40:39;;;;;;;0.80;0.70;;;;;;;;;;5027882;28;20054;-80
2023/10/04 06:43:08;;;;;;;0.60;0.60;;;;;;;;;;5027685;28;20034;-80
2023/10/04 06:45:35;;;;;;;0.60;0.60;;;;;;;;;;5028151;28;20156;-80
2023/10/04 06:48:03;;;;;;;0.88;0.80;;;;;;;;;;5028965;28;20129;-81
2023/10/04 06:50:35;;;;;;;1.42;1.33;;;;;;;;;;5031340;28;20050;-80
2023/10/04 06:53:02;;;;;;;1.50;1.17;;;;;;;;;;5013872;28;20026;-80
2023/10/04 06:55:30;;;;;;;0.75;0.68;;;;;;;;;;5014635;28;20068;-82
2023/10/04 06:57:56;;;;;;;0.85;0.70;;;;;;;;;;5012072;28;20026;-81
2023/10/04 07:00:26;;;;;;;0.65;0.60;;;;;;;;;;5012756;28;20035;-80
2023/10/04 07:02:58;;;;;;;0.52;0.52;;;;;;;;;;5012938;28;20057;-80
2023/10/04 07:05:29;;;;;;;0.43;0.43;;;;;;;;;;5011908;28;20049;-80
2023/10/04 07:07:59;;;;;;;0.50;0.50;;;;;;;;;;5013588;28;20279;-80
2023/10/04 07:10:26;;;;;;;1.38;1.27;;;;;;;;;;5015612;28;20031;-82
2023/10/04 07:12:54;;;;;;;0.80;0.70;;;;;;;;;;5016328;28;20034;-82
2023/10/04 07:15:21;;;;;;;1.15;1.00;;;;;;;;;;5016636;28;20096;-81
2023/10/04 07:17:48;;;;;;;0.90;0.70;;;;;;;;;;5013531;28;20069;-81
2023/10/04 07:20:15;;;;;;;1.08;0.70;;;;;;;;;;5012618;28;20033;-80
2023/10/04 07:22:45;;;;;;;0.93;0.80;;;;;;;;;;5012308;28;20031;-79
2023/10/04 07:25:12;;;;;;;0.73;0.70;;;;;;;;;;5011315;28;20053;-81
2023/10/04 07:27:45;;;;;;;0.60;0.60;;;;;;;;;;5010425;28;20023;-81
2023/10/04 07:30:12;;;;;;;0.85;0.70;;;;;;;;;;5031308;28;20023;-81
2023/10/04 07:32:43;;;;;;;0.95;0.75;;;;;;;;;;5031594;28;20026;-80
2023/10/04 07:35:13;;;;;;;0.90;0.70;;;;;;;;;;5019981;28;20060;-80
2023/10/04 07:37:40;;;;;;;0.70;0.60;;;;;;;;;;5020957;28;20026;-80
2023/10/04 07:40:10;;;;;;;1.08;0.73;;;;;;;;;;5022357;28;20189;-80
2023/10/04 07:42:38;;;;;;;1.05;0.90;;;;;;;;;;5024395;28;20036;-80
2023/10/04 07:45:05;;;;;;;0.70;0.70;;;;;;;;;;5025661;28;20026;-81
2023/10/04 07:47:31;;;;;;;0.68;0.60;;;;;;;;;;5027404;28;20041;-81
2023/10/04 07:49:57;;;;;;;1.48;0.90;;;;;;;;;;5026912;28;20029;-81
2023/10/04 07:52:23;;;;;;;0.50;0.50;;;;;;;;;;5025136;28;20033;-80
2023/10/04 07:54:51;;;;;;;0.60;0.60;;;;;;;;;;5022898;28;20536;-80
2023/10/04 07:57:19;;;;;;;0.60;0.60;;;;;;;;;;5024282;28;20024;-79
2023/10/04 07:59:45;;;;;;;0.60;0.60;;;;;;;;;;5025306;28;20022;-79
2023/10/04 08:02:13;;;;;;;0.63;0.60;;;;;;;;;;5025958;28;20113;-78
2023/10/04 08:04:39;;;;;;;0.50;0.50;;;;;;;;;;5027360;28;20054;-80
2023/10/04 08:07:12;;;;;;;0.60;0.60;;;;;;;;;;5025533;28;20018;-79
2023/10/04 08:09:38;;;;;;;0.50;0.50;;;;;;;;;;5025879;28;20026;-78
2023/10/04 08:12:07;;;;;;;0.77;0.77;;;;;;;;;;5028087;28;20086;-79
2023/10/04 08:14:34;;;;;;;0.63;0.60;;;;;;;;;;5028957;28;20034;-79
2023/10/04 08:17:10;;;;;;;0.50;0.50;;;;;;;;;;5039154;28;20010;-81
2023/10/04 08:19:39;;;;;;;0.60;0.60;;;;;;;;;;5040327;28;20049;-82
2023/10/04 08:22:30;;;;;;;0.70;0.70;;;;;;;;;;4962668;29;20054;-82
2023/10/04 08:24:58;;;;;;;0.60;0.60;;;;;;;;;;4944002;29;20043;-82
2023/10/04 08:27:28;;;;;;;0.50;0.50;;;;;;;;;;4942344;28;20068;-81
2023/10/04 08:30:15;;;;;;;0.55;0.55;;;;;;;;;;4942988;28;20052;-82
2023/10/04 08:33:04;;;;;;;0.50;0.50;;;;;;;;;;4942435;29;20043;-81
2023/10/04 08:36:19;;;;;;;0.60;0.60;;;;;;;;;;4923919;29;20041;-83
2023/10/04 08:39:13;;;;;;;0.50;0.50;;;;;;;;;;4852088;29;20097;-83
2023/10/04 08:42:23;;;;;;;0.60;0.60;;;;;;;;;;4863916;29;20071;-83
2023/10/04 08:45:10;;;;;;;0.60;0.60;;;;;;;;;;4830387;29;20663;-83
2023/10/04 08:48:36;;;;;;;0.60;0.60;;;;;;;;;;4811911;30;20016;-83
2023/10/04 08:54:47;;;;;;;0.50;0.50;;;;;;;;;;4775571;30;20109;-84
2023/10/04 09:00:58;;;;;;;0.50;0.50;;;;;;;;;;4705753;30;20075;-84
2023/10/04 09:03:45;;;;;;;0.45;0.45;;;;;;;;;;4719444;30;20049;-85
2023/10/04 09:06:54;;;;;;;0.50;0.50;;;;;;;;;;4757163;30;20035;-84
2023/10/04 09:10:15;;;;;;;0.50;0.50;;;;;;;;;;4746667;30;20025;-85
2023/10/04 09:13:09;;;;;;;0.50;0.50;;;;;;;;;;4738071;30;20040;-83
2023/10/04 09:16:01;;;;;;;0.65;0.65;;;;;;;;;;4694806;30;20100;-83
2023/10/04 09:21:38;;;;;;;0.50;0.50;;;;;;;;;;4741922;30;20555;-84
2023/10/04 09:24:24;;;;;;;0.60;0.60;;;;;;;;;;4773154;30;20040;-83
2023/10/04 09:27:05;;;;;;;0.40;0.40;;;;;;;;;;4729478;30;20056;-82
2023/10/04 09:30:17;;;;;;;0.40;0.40;;;;;;;;;;4773554;30;20127;-84
2023/10/04 09:33:34;;;;;;;0.50;0.50;;;;;;;;;;4773947;30;20096;-83
2023/10/04 09:36:06;;;;;;;0.55;0.55;;;;;;;;;;4738011;30;20048;-84
2023/10/04 09:38:48;;;;;;;0.50;0.50;;;;;;;;;;4773050;30;20581;-82
2023/10/04 09:41:19;;;;;;;0.40;0.40;;;;;;;;;;4769082;30;20071;-81
2023/10/04 09:43:45;;;;;;;0.47;0.47;;;;;;;;;;4768133;30;20074;-81
2023/10/04 09:46:12;;;;;;;0.50;0.50;;;;;;;;;;4796383;29;20523;-81
2023/10/04 09:48:41;;;;;;;0.43;0.43;;;;;;;;;;4843568;29;20042;-82
2023/10/04 09:51:09;;;;;;;0.50;0.50;;;;;;;;;;4857634;29;20038;-80
2023/10/04 09:53:39;;;;;;;0.50;0.50;;;;;;;;;;4856038;29;20044;-79
2023/10/04 09:56:06;;;;;;;0.60;0.60;;;;;;;;;;4858882;29;20060;-82
2023/10/04 09:58:35;;;;;;;0.55;0.55;;;;;;;;;;4860002;29;20022;-82
2023/10/04 10:01:10;;;;;;;0.50;0.50;;;;;;;;;;4862707;29;20052;-82
2023/10/04 10:03:47;;;;;;;0.50;0.50;;;;;;;;;;4881035;29;20058;-81
2023/10/04 10:06:19;;;;;;;0.40;0.40;;;;;;;;;;4917725;29;20042;-80
2023/10/04 10:08:48;;;;;;;0.63;0.63;;;;;;;;;;4984336;28;20031;-80
2023/10/04 10:11:16;;;;;;;0.40;0.40;;;;;;;;;;4988990;28;20029;-83
2023/10/04 10:13:45;;;;;;;0.47;0.47;;;;;;;;;;4992381;28;20085;-81
2023/10/04 10:16:16;;;;;;;0.50;0.50;;;;;;;;;;4992564;28;20046;-80
2023/10/04 10:18:45;;;;;;;0.77;0.77;;;;;;;;;;4954601;29;20039;-83
2023/10/04 10:21:20;;;;;;;0.40;0.40;;;;;;;;;;4935983;29;20032;-83
2023/10/04 10:24:03;;;;;;;0.40;0.40;;;;;;;;;;4881765;29;20071;-84
2023/10/04 10:26:33;;;;;;;0.50;0.50;;;;;;;;;;4965015;28;20023;-83
2023/10/04 10:29:29;;;;;;;0.35;0.35;;;;;;;;;;5014948;28;20030;-84
2023/10/04 10:31:57;;;;;;;0.30;0.30;;;;;;;;;;4936139;29;20088;-82
2023/10/04 10:34:27;;;;;;;0.38;0.38;;;;;;;;;;4952173;29;20044;-84
2023/10/04 10:37:15;;;;;;;1.07;0.97;;;;;;;;;;4920165;29;20068;-81
2023/10/04 10:39:52;;;;;;;0.40;0.40;;;;;;;;;;4926957;29;20140;-79
2023/10/04 10:42:18;;;;;;;0.30;0.30;;;;;;;;;;4938366;29;20056;-81
2023/10/04 10:44:45;;;;;;;0.40;0.40;;;;;;;;;;4916537;29;20040;-81
2023/10/04 10:47:17;;;;;;;0.40;0.40;;;;;;;;;;4916150;29;20122;-80
2023/10/04 10:49:51;;;;;;;0.57;0.57;;;;;;;;;;4924210;29;20064;-81
2023/10/04 10:52:23;;;;;;;0.50;0.50;;;;;;;;;;4964272;29;20039;-81
2023/10/04 10:54:50;;;;;;;0.30;0.30;;;;;;;;;;4963918;29;20031;-82
2023/10/04 10:57:20;;;;;;;0.30;0.30;;;;;;;;;;4962641;29;20031;-82
2023/10/04 10:59:47;;;;;;;0.43;0.43;;;;;;;;;;4963279;29;20019;-80
2023/10/04 11:02:14;;;;;;;0.30;0.30;;;;;;;;;;4976855;28;20034;-81
2023/10/04 11:04:40;;;;;;;0.30;0.30;;;;;;;;;;4989538;28;20030;-81
2023/10/04 11:07:07;;;;;;;0.52;0.45;;;;;;;;;;4990098;28;20026;-81
2023/10/04 11:09:43;;;;;;;0.30;0.30;;;;;;;;;;5007506;28;20054;-83
2023/10/04 11:21:04;;;;;;;;;;;;;;;;;;5006456;28;20049;-85
2023/10/04 11:26:35;;;;;;;;;;;;;;;;;;4989546;28;19913;-85
2023/10/04 11:32:15;;;;;;;;;;;;;;;;;;4950785;29;19954;-84
2023/10/04 11:43:19;;;;;;;;;;;;;;;;;;5018449;23;19947;-84
2023/10/04 11:51:54;;;;;;;;;;;;;;;;;;5051262;28;19912;-80
2023/10/04 11:54:29;;;;;;;;;;;;;;;;;;5059745;28;19995;-82
2023/10/04 12:00:03;;;;;;;;;;;;;;;;;;5126019;22;19920;-82
2023/10/04 12:05:15;;;;;;;;;;;;;;;;;;5029570;28;19968;-87
2023/10/04 12:07:41;;;;;;;;;;;;;;;;;;5017740;28;19940;-87
2023/10/04 12:10:09;;;;;;;;;;;;;;;;;;5016967;28;19905;-87
2023/10/04 12:12:37;;;;;;;;;;;;;;;;;;5017008;28;19909;-87
2023/10/04 12:15:07;;;;;;;;;;;;;;;;;;5017199;28;19916;-86
2023/10/04 12:17:34;;;;;;;;;;;;;;;;;;5016755;28;19905;-86
2023/10/04 12:20:04;;;;;;;;;;;;;;;;;;5016841;28;19905;-89
2023/10/04 12:22:30;;;;;;;;;;;;;;;;;;5016197;28;19905;-87
2023/10/04 12:24:56;;;;;;;;;;;;;;;;;;5016451;28;19909;-88
2023/10/04 12:27:24;;;;;;;;;;;;;;;;;;5016591;28;19906;-88
2023/10/04 12:29:50;;;;;;;;;;;;;;;;;;5016328;28;20468;-90
2023/10/04 12:32:19;;;;;;;;;;;;;;;;;;5016755;28;19905;-90
2023/10/04 12:34:45;;;;;;;;;;;;;;;;;;5017113;28;19948;-89
2023/10/04 12:37:12;;;;;;;;;;;;;;;;;;5016427;28;19905;-88
2023/10/04 12:39:38;;;;;;;;;;;;;;;;;;5030861;28;19911;-88
2023/10/04 12:42:04;;;;;;;;;;;;;;;;;;5041063;28;20003;-88
2023/10/04 12:44:30;;;;;;;;;;;;;;;;;;5041211;28;19951;-87
2023/10/04 12:46:59;;;;;;;;;;;;;;;;;;5040903;28;19959;-86
2023/10/04 12:49:26;;;;;;;;;;;;;;;;;;5040911;28;19966;-91
2023/10/04 12:51:52;;;;;;;;;;;;;;;;;;5037416;28;19916;-88
2023/10/04 12:54:23;;;;;;;;;;;;;;;;;;5041289;28;19909;-87
2023/10/04 12:56:51;;;;;;;;;;;;;;;;;;5040664;28;19909;-87
2023/10/04 12:59:19;;;;;;;;;;;;;;;;;;5040125;28;19916;-86
2023/10/04 13:01:45;;;;;;;;;;;;;;;;;;5039259;28;19908;-88
2023/10/04 13:04:11;;;;;;;;;;;;;;;;;;5040711;28;19913;-90
2023/10/04 13:06:38;;;;;;;;;;;;;;;;;;5048347;28;20004;-90
2023/10/04 13:09:04;;;;;;;;;;;;;;;;;;5056836;28;19915;-90
2023/10/04 13:11:30;;;;;;;;;;;;;;;;;;5056963;28;19904;-90
2023/10/04 13:13:56;;;;;;;;;;;;;;;;;;5057225;28;19905;-90
2023/10/04 13:16:22;;;;;;;;;;;;;;;;;;5057944;28;19927;-90
2023/10/04 13:18:51;;;;;;;;;;;;;;;;;;5057209;28;19952;-90
2023/10/04 13:21:17;;;;;;;;;;;;;;;;;;5057636;28;20280;-88
2023/10/04 13:23:43;;;;;;;;;;;;;;;;;;5056047;28;19912;-89
2023/10/04 13:26:10;;;;;;;;;;;;;;;;;;5056003;28;19904;-88
2023/10/04 13:28:36;;;;;;;;;;;;;;;;;;5056026;28;19905;-88
2023/10/04 13:31:02;;;;;;;;;;;;;;;;;;5055996;28;20523;-89
2023/10/04 13:33:29;;;;;;;;;;;;;;;;;;5055916;28;19904;-86
2023/10/04 13:35:55;;;;;;;;;;;;;;;;;;5057808;28;19923;-92
2023/10/04 13:38:22;;;;;;;;;;;;;;;;;;5056297;28;19905;-88
2023/10/04 13:40:48;;;;;;;;;;;;;;;;;;5056064;28;19908;-86
2023/10/04 13:43:14;;;;;;;;;;;;;;;;;;5055455;28;19905;-86
2023/10/04 13:45:40;;;;;;;;;;;;;;;;;;5055831;28;19905;-86
2023/10/04 13:48:09;;;;;;;;;;;;;;;;;;5056308;28;20245;-88
2023/10/04 13:50:37;;;;;;;;;;;;;;;;;;5038813;28;19934;-86
2023/10/04 13:53:03;;;;;;;;;;;;;;;;;;5035863;28;19916;-87
2023/10/04 13:55:29;;;;;;;;;;;;;;;;;;5038739;28;19905;-86
2023/10/04 13:57:55;;;;;;;;;;;;;;;;;;5038413;28;20336;-87
2023/10/04 14:00:24;;;;;;;;;;;;;;;;;;5038614;28;19936;-85
2023/10/04 14:02:50;;;;;;;;;;;;;;;;;;5038595;28;19987;-86
2023/10/04 14:05:18;;;;;;;;;;;;;;;;;;5038955;28;19912;-86
2023/10/04 14:07:48;;;;;;;;;;;;;;;;;;5038367;28;19905;-84
2023/10/04 14:13:12;;;;;;;;;;;;;;;;;;5068873;28;19896;-79
2023/10/04 14:24:16;;;;;;;;;;;;;;;;;;5359007;22;19912;-78
2023/10/04 14:30:08;;;;;;;;;;;;;;;;;;5059522;28;19907;-79
2023/10/04 15:35:27;;;;;;;;;;;;;;;;;;5067951;28;19978;-83
2023/10/04 15:38:09;;;;;;;;;;;;;;;;;;5051048;28;19940;-84
2023/10/04 15:40:39;;;;;;;;;;;;;;;;;;5033494;28;19904;-84
2023/10/04 15:43:30;;;;;;;;;;;;;;;;;;5069340;28;19905;-85
2023/10/04 15:46:15;;;;;;;;;;;;;;;;;;5067503;28;19927;-82
2023/10/04 15:48:53;;;;;;;;;;;;;;;;;;5049269;28;19915;-84
2023/10/04 15:51:20;;;;;;;;;;;;;;;;;;5047770;28;19993;-80
2023/10/04 15:54:00;;;;;;;;;;;;;;;;;;5047060;28;19912;-81
2023/10/04 15:56:27;;;;;;;;;;;;;;;;;;5030710;28;19905;-79
2023/10/04 15:58:56;;;;;;;;;;;;;;;;;;5043214;28;19905;-79
2023/10/04 16:01:29;;;;;;;;;;;;;;;;;;5030588;28;19905;-81
2023/10/04 16:03:56;;;;;;;;;;;;;;;;;;5027181;28;19909;-81
2023/10/04 16:06:22;;;;;;;;;;;;;;;;;;5009199;28;19909;-82
2023/10/04 16:08:50;;;;;;;;;;;;;;;;;;5010136;28;19921;-82
2023/10/04 16:11:16;;;;;;;;;;;;;;;;;;5008042;28;19905;-82
2023/10/04 16:13:48;;;;;;;;;;;;;;;;;;5009355;28;19917;-86
2023/10/04 16:16:19;;;;;;;;;;;;;;;;;;5008723;28;19913;-81
2023/10/04 16:18:51;;;;;;;;;;;;;;;;;;5009860;28;19962;-80
2023/10/04 16:21:30;;;;;;;;;;;;;;;;;;4991395;28;19905;-79
2023/10/04 16:23:56;;;;;;;;;;;;;;;;;;5009164;28;19976;-81
2023/10/04 16:26:22;;;;;;;;;;;;;;;;;;5009085;28;19960;-83
2023/10/04 16:28:48;;;;;;;;;;;;;;;;;;5009534;28;19976;-81
2023/10/04 16:31:15;;;;;;;;;;;;;;;;;;5009197;28;19914;-81
2023/10/04 16:33:43;;;;;;;;;;;;;;;;;;5009642;28;19917;-83
2023/10/04 16:36:09;;;;;;;;;;;;;;;;;;5026439;28;19909;-81
2023/10/04 16:38:35;;;;;;;;;;;;;;;;;;5013894;28;19927;-83
2023/10/04 16:41:02;;;;;;;;;;;;;;;;;;4973010;28;19906;-84
2023/10/04 16:43:31;;;;;;;;;;;;;;;;;;4939029;29;19906;-83
2023/10/04 16:46:17;;;;;;;;;;;;;;;;;;4949058;29;20374;-80
2023/10/04 16:48:43;;;;;;;;;;;;;;;;;;4931598;29;19917;-82
2023/10/04 16:51:09;;;;;;;;;;;;;;;;;;4932788;29;20367;-82
2023/10/04 16:53:36;;;;;;;;;;;;;;;;;;4932335;29;19962;-80
2023/10/04 16:56:04;;;;;;;;;;;;;;;;;;4929862;29;19965;-82
2023/10/04 16:58:30;;;;;;;;;;;;;;;;;;4930830;29;19930;-80
2023/10/04 17:00:59;;;;;;;;;;;;;;;;;;4913171;29;19915;-85
2023/10/04 17:03:44;;;;;;;;;;;;;;;;;;4910561;29;19918;-82
2023/10/04 17:06:12;;;;;;;;;;;;;;;;;;4910669;29;20422;-82
2023/10/04 17:08:44;;;;;;;;;;;;;;;;;;4914309;29;20408;-84
2023/10/04 17:11:28;;;;;;;;;;;;;;;;;;4916935;29;20395;-85
2023/10/04 17:19:49;;;;;;;;;;;;;;;;;;4912632;29;19932;-85
2023/10/04 17:27:46;;;;;;;;;;;;;;;;;;4934115;29;20003;-86
2023/10/04 17:30:32;;;;;;;;;;;;;;;;;;4934002;29;19931;-86
2023/10/04 17:32:59;;;;;;;;;;;;;;;;;;4920412;29;19935;-85
2023/10/04 17:35:31;;;;;;;;;;;;;;;;;;4937099;29;20028;-84
2023/10/04 17:38:09;;;;;;;;;;;;;;;;;;4925371;29;19943;-80
2023/10/04 17:40:54;;;;;;;;;;;;;;;;;;4914419;29;19908;-82
2023/10/04 17:43:40;;;;;;;;;;;;;;;;;;4933100;29;19974;-81
2023/10/04 17:46:44;;;;;;;;;;;;;;;;;;4962587;29;19913;-83
2023/10/04 17:49:39;;;;;;;;;;;;;;;;;;4950723;29;19918;-83
2023/10/04 17:52:25;;;;;;;;;;;;;;;;;;4912354;29;19983;-79
2023/10/04 17:54:52;;;;;;;;;;;;;;;;;;4897092;29;19911;-81